Time;durP1;ratioP1;P1;durP2;ratioP2;P2;SDS_P1;SDS_P2;PMS_P1;PMS_P2;Temp;Humidity;BMP_temperature;BMP_pressure;BME280_temperature;BME280_humidity;BME280_pressure;Samples;Min_cycle;Max_cycle;Signal;HPM_P1;HPM_P2
2022/09/29 00:00:21;;;;;;;9.35;6.32;;;3.90;99.90;;;;;;5046573;28;20044;-39
2022/09/29 00:02:46;;;;;;;13.82;8.30;;;3.90;99.90;;;;;;5046648;28;20064;-40
2022/09/29 00:05:12;;;;;;;10.93;7.00;;;4.00;99.90;;;;;;5046207;28;20045;-39
2022/09/29 00:07:38;;;;;;;15.93;7.93;;;4.00;99.90;;;;;;5045895;28;20430;-40
2022/09/29 00:10:04;;;;;;;13.85;7.43;;;4.00;99.90;;;;;;5045312;28;20041;-39
2022/09/29 00:12:30;;;;;;;19.23;7.97;;;4.10;99.90;;;;;;5045358;28;20399;-39
2022/09/29 00:14:55;;;;;;;13.73;7.65;;;4.00;99.90;;;;;;5046638;28;20040;-40
2022/09/29 00:17:21;;;;;;;26.80;10.82;;;4.10;99.90;;;;;;5046684;28;20455;-40
2022/09/29 00:19:47;;;;;;;40.50;11.68;;;4.10;99.90;;;;;;5045772;28;20184;-40
2022/09/29 00:22:12;;;;;;;119.22;14.05;;;4.10;99.90;;;;;;5046268;28;20047;-40
2022/09/29 00:24:38;;;;;;;44.28;11.77;;;4.10;99.90;;;;;;5045880;28;20047;-39
2022/09/29 00:27:04;;;;;;;17.55;8.68;;;4.10;99.90;;;;;;5045844;28;20148;-40
2022/09/29 00:29:30;;;;;;;15.02;6.53;;;4.00;99.90;;;;;;5045722;28;20047;-39
2022/09/29 00:31:55;;;;;;;18.50;7.28;;;4.00;99.90;;;;;;5046423;28;20091;-39
2022/09/29 00:34:21;;;;;;;18.40;7.95;;;3.90;99.90;;;;;;5046253;28;20051;-40
2022/09/29 00:36:46;;;;;;;11.80;6.60;;;3.90;99.90;;;;;;5045875;28;20087;-40
2022/09/29 00:39:12;;;;;;;16.75;9.73;;;3.90;99.90;;;;;;5045803;28;20163;-39
2022/09/29 00:41:40;;;;;;;15.55;8.88;;;3.80;99.90;;;;;;5045951;28;20083;-39
2022/09/29 00:44:44;;;;;;;15.95;10.07;;;3.90;99.90;;;;;;5046039;28;20045;-39
2022/09/29 00:47:14;;;;;;;15.57;9.60;;;4.00;99.90;;;;;;5046275;28;20189;-39
2022/09/29 00:49:48;;;;;;;22.27;12.02;;;4.00;99.90;;;;;;5046388;28;20049;-39
2022/09/29 00:52:22;;;;;;;17.83;10.93;;;4.10;99.90;;;;;;5046204;28;20052;-39
2022/09/29 00:54:52;;;;;;;28.65;12.90;;;4.10;99.90;;;;;;5045755;28;20090;-39
2022/09/29 00:57:23;;;;;;;16.13;9.90;;;4.00;99.90;;;;;;5046200;28;20044;-39
2022/09/29 01:00:03;;;;;;;29.55;12.57;;;4.00;99.90;;;;;;5045324;28;20045;-39
2022/09/29 01:02:32;;;;;;;14.65;8.98;;;4.00;99.90;;;;;;5045800;28;20041;-39
2022/09/29 01:04:59;;;;;;;19.80;10.15;;;3.90;99.90;;;;;;5045616;28;20045;-40
2022/09/29 01:07:26;;;;;;;17.30;9.57;;;3.90;99.90;;;;;;5044263;28;20114;-40
2022/09/29 01:09:55;;;;;;;23.67;10.27;;;3.90;99.90;;;;;;5045552;28;20041;-41
2022/09/29 01:12:22;;;;;;;30.13;11.63;;;3.80;99.90;;;;;;5045514;28;20140;-39
2022/09/29 01:14:48;;;;;;;20.33;10.55;;;3.80;99.90;;;;;;5045010;28;20127;-40
2022/09/29 01:17:15;;;;;;;27.10;10.90;;;3.70;99.90;;;;;;5045327;28;20534;-40
2022/09/29 01:19:40;;;;;;;21.48;8.30;;;3.70;99.90;;;;;;5045249;28;20072;-39
2022/09/29 01:22:24;;;;;;;15.75;8.80;;;3.50;99.90;;;;;;5045764;28;20187;-40
2022/09/29 01:25:11;;;;;;;10.50;6.72;;;3.60;99.90;;;;;;5051372;28;20429;-40
2022/09/29 01:28:05;;;;;;;12.48;8.27;;;3.50;99.90;;;;;;5051985;28;20075;-40
2022/09/29 01:31:01;;;;;;;15.13;8.65;;;3.40;99.90;;;;;;5052225;28;20037;-40
2022/09/29 01:33:43;;;;;;;15.27;9.95;;;3.50;99.90;;;;;;5052375;28;20487;-41
2022/09/29 01:36:42;;;;;;;18.33;10.85;;;3.60;99.90;;;;;;5051871;28;20500;-40
2022/09/29 01:39:23;;;;;;;19.60;11.48;;;3.70;99.90;;;;;;5052067;28;20398;-40
2022/09/29 01:42:28;;;;;;;15.93;10.57;;;3.70;99.90;;;;;;5050658;28;20037;-40
2022/09/29 01:45:02;;;;;;;26.48;14.05;;;3.80;99.90;;;;;;5051689;28;20064;-40
2022/09/29 01:47:35;;;;;;;30.42;15.68;;;3.80;99.90;;;;;;5051831;28;20411;-40
2022/09/29 01:50:11;;;;;;;22.27;13.63;;;3.90;99.90;;;;;;5051856;28;20052;-39
2022/09/29 01:52:43;;;;;;;17.70;12.63;;;4.00;99.90;;;;;;5051702;28;20064;-40
2022/09/29 01:55:15;;;;;;;23.67;15.00;;;4.00;99.90;;;;;;5051621;28;20055;-40
2022/09/29 01:57:50;;;;;;;31.52;16.60;;;3.90;99.90;;;;;;5051568;28;20525;-40
2022/09/29 02:00:18;;;;;;;36.72;15.95;;;4.00;99.90;;;;;;5050278;28;20376;-39
2022/09/29 02:02:56;;;;;;;35.97;16.33;;;3.90;99.90;;;;;;5051645;28;20071;-40
2022/09/29 02:05:30;;;;;;;32.97;15.32;;;3.90;99.90;;;;;;5051652;28;20040;-40
2022/09/29 02:08:01;;;;;;;44.10;15.68;;;3.80;99.90;;;;;;5051406;28;20049;-41
2022/09/29 02:10:36;;;;;;;45.40;15.60;;;3.80;99.90;;;;;;5051351;28;20051;-40
2022/09/29 02:13:06;;;;;;;48.55;16.00;;;3.70;99.90;;;;;;5051300;28;20613;-40
2022/09/29 02:15:36;;;;;;;26.52;13.45;;;3.70;99.90;;;;;;5051393;28;20132;-40
2022/09/29 02:18:09;;;;;;;44.78;15.75;;;3.60;99.90;;;;;;5051257;28;20048;-40
2022/09/29 02:20:35;;;;;;;35.35;13.65;;;3.50;99.90;;;;;;5051293;28;20048;-39
2022/09/29 02:23:02;;;;;;;28.70;11.77;;;3.50;99.90;;;;;;5051372;28;20041;-40
2022/09/29 02:25:27;;;;;;;25.50;10.73;;;3.80;99.90;;;;;;5051646;28;20102;-40
2022/09/29 02:27:53;;;;;;;20.48;9.73;;;3.40;99.90;;;;;;5051823;28;20077;-40
2022/09/29 02:30:19;;;;;;;19.17;7.22;;;3.40;99.90;;;;;;5051989;28;20037;-40
2022/09/29 02:32:48;;;;;;;13.45;6.90;;;3.30;99.90;;;;;;5051816;28;20562;-41
2022/09/29 02:35:14;;;;;;;18.27;7.40;;;3.20;99.90;;;;;;5048143;28;20098;-39
2022/09/29 02:38:05;;;;;;;16.30;7.10;;;3.10;99.90;;;;;;5049046;28;20545;-40
2022/09/29 02:40:42;;;;;;;19.13;7.35;;;3.00;99.90;;;;;;5048505;28;20095;-40
2022/09/29 02:43:10;;;;;;;23.95;10.18;;;2.90;99.90;;;;;;5047069;28;20041;-40
2022/09/29 02:46:05;;;;;;;17.98;9.35;;;2.90;99.90;;;;;;5046790;28;20052;-40
2022/09/29 02:48:33;;;;;;;17.17;7.95;;;2.90;99.90;;;;;;5048347;28;20049;-40
2022/09/29 02:51:17;;;;;;;20.35;9.52;;;2.90;99.90;;;;;;5047689;28;20077;-41
2022/09/29 02:54:06;;;;;;;30.15;13.25;;;2.90;99.90;;;;;;5048233;28;20438;-42
2022/09/29 02:56:48;;;;;;;22.05;12.65;;;2.80;99.90;;;;;;5047998;28;20045;-41
2022/09/29 02:59:19;;;;;;;25.93;14.17;;;2.90;99.90;;;;;;5048285;28;20499;-40
2022/09/29 03:01:51;;;;;;;19.58;12.27;;;3.10;99.90;;;;;;5048354;28;20264;-40
2022/09/29 03:04:18;;;;;;;27.73;13.98;;;3.10;99.90;;;;;;5048169;28;20052;-40
2022/09/29 03:06:44;;;;;;;34.10;17.15;;;3.20;99.90;;;;;;5047766;28;20684;-40
2022/09/29 03:09:10;;;;;;;31.83;16.52;;;3.30;99.90;;;;;;5047710;28;20047;-40
2022/09/29 03:11:35;;;;;;;34.15;17.38;;;3.30;99.90;;;;;;5045875;28;20053;-40
2022/09/29 03:14:02;;;;;;;34.95;14.98;;;3.40;99.90;;;;;;5047844;28;20081;-39
2022/09/29 03:16:28;;;;;;;159.70;16.65;;;3.60;99.90;;;;;;5047775;28;20045;-40
2022/09/29 03:18:55;;;;;;;56.67;12.90;;;3.40;99.90;;;;;;5047660;28;20048;-39
2022/09/29 03:21:21;;;;;;;97.03;15.57;;;3.40;99.90;;;;;;5047279;28;20116;-40
2022/09/29 03:23:47;;;;;;;95.22;13.50;;;3.50;99.90;;;;;;5047117;28;20067;-39
2022/09/29 03:26:13;;;;;;;165.48;19.13;;;3.40;99.90;;;;;;5047353;28;20047;-40
2022/09/29 03:28:39;;;;;;;61.20;14.43;;;3.10;99.90;;;;;;5047209;28;20106;-40
2022/09/29 03:31:05;;;;;;;75.03;13.60;;;3.30;99.90;;;;;;5047172;28;20128;-40
2022/09/29 03:33:32;;;;;;;48.15;14.18;;;3.20;99.90;;;;;;5047700;28;20081;-40
2022/09/29 03:35:57;;;;;;;55.92;18.25;;;3.40;99.90;;;;;;5047018;28;20045;-41
2022/09/29 03:38:23;;;;;;;52.15;18.20;;;3.30;99.90;;;;;;5047109;28;20051;-40
2022/09/29 03:40:49;;;;;;;52.38;16.63;;;3.20;99.90;;;;;;5047486;28;20044;-40
2022/09/29 03:43:14;;;;;;;44.60;14.25;;;3.20;99.90;;;;;;5046812;28;20068;-40
2022/09/29 03:45:54;;;;;;;48.30;14.52;;;3.20;99.90;;;;;;5045299;28;20475;-40
2022/09/29 03:48:21;;;;;;;50.47;13.70;;;3.00;99.90;;;;;;5047161;28;20041;-40
2022/09/29 03:50:48;;;;;;;33.83;14.13;;;3.00;99.90;;;;;;5046912;28;20045;-41
2022/09/29 03:53:14;;;;;;;53.15;20.63;;;2.90;99.90;;;;;;5047291;28;20048;-41
2022/09/29 03:55:40;;;;;;;61.30;19.67;;;3.00;99.90;;;;;;5047093;28;20174;-40
2022/09/29 03:58:06;;;;;;;54.22;17.80;;;3.00;99.90;;;;;;5046953;28;20363;-41
2022/09/29 04:00:32;;;;;;;51.55;20.83;;;3.00;99.90;;;;;;5046778;28;20407;-40
2022/09/29 04:02:58;;;;;;;40.55;16.23;;;3.40;99.90;;;;;;5046473;28;20132;-40
2022/09/29 04:05:24;;;;;;;56.25;20.33;;;3.10;99.90;;;;;;5046491;28;20052;-40
2022/09/29 04:07:49;;;;;;;53.35;18.90;;;3.20;99.90;;;;;;5047245;28;20283;-40
2022/09/29 04:10:15;;;;;;;49.33;18.05;;;3.20;99.90;;;;;;5046071;28;20045;-40
2022/09/29 04:12:41;;;;;;;79.00;22.33;;;3.20;99.90;;;;;;5046337;28;20045;-40
2022/09/29 04:15:07;;;;;;;60.30;21.17;;;3.20;99.90;;;;;;5045967;28;20411;-40
2022/09/29 04:17:33;;;;;;;51.28;19.60;;;3.20;99.90;;;;;;5046094;28;20139;-41
2022/09/29 04:19:59;;;;;;;51.58;19.35;;;3.30;99.90;;;;;;5046532;28;20124;-40
2022/09/29 04:22:24;;;;;;;71.45;23.55;;;3.30;99.90;;;;;;5046155;28;20479;-41
2022/09/29 04:24:51;;;;;;;58.15;20.70;;;3.40;99.90;;;;;;5046213;28;20673;-41
2022/09/29 04:27:17;;;;;;;48.83;18.85;;;3.40;99.90;;;;;;5045896;28;20040;-40
2022/09/29 04:29:43;;;;;;;35.70;15.68;;;3.40;99.90;;;;;;5046430;28;20055;-41
2022/09/29 04:32:09;;;;;;;50.30;20.33;;;3.40;99.90;;;;;;5046001;28;20045;-41
2022/09/29 04:34:35;;;;;;;54.15;22.58;;;3.20;99.90;;;;;;5046094;28;20052;-40
2022/09/29 04:37:00;;;;;;;75.15;25.90;;;3.40;99.90;;;;;;5045813;28;20048;-40
2022/09/29 04:39:26;;;;;;;47.95;18.98;;;3.40;99.90;;;;;;5046019;28;20052;-41
2022/09/29 04:41:52;;;;;;;44.33;19.77;;;4.30;99.90;;;;;;5046165;28;20054;-40
2022/09/29 04:44:23;;;;;;;37.30;19.98;;;3.40;99.90;;;;;;5045468;28;20049;-40
2022/09/29 04:46:51;;;;;;;40.83;20.50;;;3.30;99.90;;;;;;5045656;28;20570;-40
2022/09/29 04:49:18;;;;;;;81.05;26.27;;;3.30;99.90;;;;;;5045579;28;20099;-40
2022/09/29 04:51:43;;;;;;;96.38;27.40;;;3.30;99.90;;;;;;5046020;28;20045;-40
2022/09/29 04:54:09;;;;;;;48.47;19.85;;;3.30;99.90;;;;;;5045787;28;20198;-41
2022/09/29 04:56:35;;;;;;;60.72;22.02;;;3.20;99.90;;;;;;5046425;28;20051;-41
2022/09/29 04:59:00;;;;;;;81.60;25.50;;;3.70;99.90;;;;;;5045778;28;20372;-41
2022/09/29 05:01:26;;;;;;;78.00;24.67;;;3.20;99.90;;;;;;5046193;28;20411;-40
2022/09/29 05:03:52;;;;;;;109.82;26.45;;;3.20;99.90;;;;;;5046347;28;20080;-41
2022/09/29 05:06:18;;;;;;;130.65;30.80;;;3.20;99.90;;;;;;5045850;28;20040;-41
2022/09/29 05:08:44;;;;;;;133.38;26.20;;;3.10;99.90;;;;;;5045627;28;20526;-41
2022/09/29 05:11:10;;;;;;;88.63;22.77;;;3.10;99.90;;;;;;5045857;28;20055;-41
2022/09/29 05:13:36;;;;;;;98.65;19.52;;;3.10;99.90;;;;;;5046008;28;20052;-42
2022/09/29 05:16:03;;;;;;;62.60;17.52;;;3.00;99.90;;;;;;5045957;28;20048;-40
2022/09/29 05:18:29;;;;;;;81.40;21.88;;;4.10;99.90;;;;;;5046088;28;20202;-43
2022/09/29 05:20:55;;;;;;;60.60;19.50;;;4.40;99.90;;;;;;5045447;28;20483;-41
2022/09/29 05:23:21;;;;;;;55.65;21.08;;;3.00;99.90;;;;;;5045483;28;20037;-40
2022/09/29 05:25:47;;;;;;;36.15;19.30;;;3.00;99.90;;;;;;5045776;28;20037;-41
2022/09/29 05:28:14;;;;;;;55.28;22.65;;;2.90;99.90;;;;;;5045157;28;20387;-40
2022/09/29 05:30:40;;;;;;;70.68;27.73;;;2.90;99.90;;;;;;5044900;28;20083;-41
2022/09/29 05:33:06;;;;;;;76.57;24.75;;;3.00;99.90;;;;;;5044825;28;20574;-41
2022/09/29 05:35:32;;;;;;;60.10;23.65;;;2.90;99.90;;;;;;5045410;28;20055;-41
2022/09/29 05:37:57;;;;;;;97.55;27.20;;;2.90;99.90;;;;;;5043838;28;20087;-41
2022/09/29 05:40:23;;;;;;;178.35;32.08;;;3.00;99.90;;;;;;5043614;28;20383;-40
2022/09/29 05:42:50;;;;;;;191.25;31.52;;;2.90;99.90;;;;;;5045741;28;20044;-41
2022/09/29 05:45:16;;;;;;;76.60;23.63;;;2.90;99.90;;;;;;5045516;28;20580;-40
2022/09/29 05:47:43;;;;;;;58.78;21.30;;;2.90;99.90;;;;;;5045427;28;20498;-41
2022/09/29 05:50:12;;;;;;;105.65;27.25;;;2.80;99.90;;;;;;5045501;28;20048;-41
2022/09/29 05:52:39;;;;;;;37.72;18.98;;;3.00;99.90;;;;;;5045444;28;20036;-41
2022/09/29 05:55:08;;;;;;;41.10;19.92;;;2.90;99.90;;;;;;5045220;28;20053;-41
2022/09/29 05:57:34;;;;;;;147.20;33.83;;;2.90;99.90;;;;;;5045282;28;20644;-41
2022/09/29 06:00:01;;;;;;;63.60;24.73;;;3.00;99.90;;;;;;5045056;28;20681;-41
2022/09/29 06:02:26;;;;;;;64.22;23.27;;;3.00;99.90;;;;;;5045103;28;20351;-41
2022/09/29 06:04:52;;;;;;;87.22;26.05;;;3.20;99.90;;;;;;5045023;28;20041;-41
2022/09/29 06:07:18;;;;;;;31.40;17.35;;;3.10;99.90;;;;;;5045353;28;20048;-41
2022/09/29 06:09:44;;;;;;;87.95;24.20;;;3.00;99.90;;;;;;5046089;28;20041;-41
2022/09/29 06:12:10;;;;;;;76.15;24.02;;;3.00;99.90;;;;;;5048485;28;20064;-40
2022/09/29 06:14:35;;;;;;;53.88;21.25;;;3.20;99.90;;;;;;5049139;28;20056;-40
2022/09/29 06:17:01;;;;;;;56.03;21.92;;;3.20;99.90;;;;;;5049155;28;20100;-41
2022/09/29 06:19:27;;;;;;;31.13;17.90;;;3.30;99.90;;;;;;5048483;28;20041;-40
2022/09/29 06:21:52;;;;;;;46.30;22.98;;;3.30;99.90;;;;;;5048703;28;20450;-41
2022/09/29 06:24:18;;;;;;;55.83;23.80;;;3.50;99.90;;;;;;5046834;28;20053;-41
2022/09/29 06:26:44;;;;;;;63.00;26.10;;;3.50;99.90;;;;;;5048780;28;20041;-41
2022/09/29 06:29:09;;;;;;;64.82;27.27;;;3.50;99.90;;;;;;5048758;28;20048;-41
2022/09/29 06:31:35;;;;;;;48.28;25.77;;;3.70;99.90;;;;;;5047987;28;20556;-40
2022/09/29 06:34:03;;;;;;;49.40;26.20;;;3.80;99.90;;;;;;5048269;28;20037;-42
2022/09/29 06:39:23;;;;;;;37.65;22.83;;;3.90;99.90;;;;;;5048391;28;20406;-40
2022/09/29 06:41:53;;;;;;;39.17;24.00;;;4.10;99.90;;;;;;5048479;28;20410;-40
2022/09/29 06:44:20;;;;;;;81.90;32.28;;;4.20;99.90;;;;;;5048282;28;20471;-40
2022/09/29 06:46:46;;;;;;;46.47;26.50;;;4.30;99.90;;;;;;5048815;28;20098;-40
2022/09/29 06:49:14;;;;;;;60.58;27.27;;;4.60;99.90;;;;;;5048612;28;20084;-42
2022/09/29 06:51:41;;;;;;;42.40;25.05;;;4.50;99.90;;;;;;5048180;28;20037;-40
2022/09/29 06:54:07;;;;;;;46.00;25.70;;;4.60;99.90;;;;;;5048042;28;20055;-41
2022/09/29 06:56:32;;;;;;;60.65;28.55;;;4.90;99.90;;;;;;5048206;28;20048;-40
2022/09/29 06:58:58;;;;;;;59.70;28.38;;;4.70;99.90;;;;;;5048528;28;20745;-42
2022/09/29 07:01:23;;;;;;;75.28;30.90;;;4.90;99.90;;;;;;5048106;28;20057;-41
2022/09/29 07:03:49;;;;;;;120.80;38.03;;;5.00;99.90;;;;;;5047817;28;20512;-43
2022/09/29 07:06:15;;;;;;;69.18;31.60;;;5.30;99.90;;;;;;5047870;28;20029;-41
2022/09/29 07:08:40;;;;;;;61.75;31.35;;;5.10;99.90;;;;;;5047731;28;20037;-40
2022/09/29 07:11:08;;;;;;;53.78;30.30;;;5.30;99.90;;;;;;5047165;28;20072;-40
2022/09/29 07:13:35;;;;;;;56.88;29.58;;;5.50;99.90;;;;;;5047713;28;20084;-41
2022/09/29 07:16:09;;;;;;;60.78;30.80;;;5.60;99.90;;;;;;5048268;28;20103;-42
2022/09/29 07:18:37;;;;;;;67.30;32.92;;;5.70;99.90;;;;;;5045703;28;20473;-40
2022/09/29 07:21:08;;;;;;;69.18;33.72;;;5.70;99.90;;;;;;5046972;28;20040;-41
2022/09/29 07:23:35;;;;;;;80.88;34.50;;;5.90;99.90;;;;;;5047120;28;20045;-40
2022/09/29 07:26:00;;;;;;;53.72;31.23;;;5.90;99.90;;;;;;5047207;28;20263;-41
2022/09/29 07:28:28;;;;;;;82.97;33.33;;;6.20;99.90;;;;;;5047093;28;20119;-42
2022/09/29 07:31:02;;;;;;;71.75;34.53;;;6.00;99.90;;;;;;5046868;28;20491;-41
2022/09/29 07:33:29;;;;;;;48.30;29.30;;;6.00;99.90;;;;;;5046796;28;20499;-41
2022/09/29 07:35:56;;;;;;;57.20;31.42;;;6.00;99.90;;;;;;5047833;28;20086;-40
2022/09/29 07:38:22;;;;;;;59.08;32.67;;;6.00;99.90;;;;;;5046817;28;20458;-41
2022/09/29 07:40:48;;;;;;;56.20;32.97;;;6.10;99.90;;;;;;5047026;28;20045;-41
2022/09/29 07:43:13;;;;;;;84.93;36.17;;;6.00;99.90;;;;;;5046921;28;20052;-41
2022/09/29 07:45:49;;;;;;;57.55;32.72;;;6.20;99.90;;;;;;5046890;28;20048;-41
2022/09/29 07:48:15;;;;;;;72.97;35.08;;;6.50;99.90;;;;;;5047130;28;20118;-41
2022/09/29 07:50:41;;;;;;;59.03;33.55;;;6.50;99.90;;;;;;5046818;28;20102;-41
2022/09/29 07:53:08;;;;;;;51.72;31.20;;;6.70;99.90;;;;;;5047181;28;20130;-41
2022/09/29 07:55:34;;;;;;;82.65;37.35;;;6.90;99.90;;;;;;5046498;28;20391;-41
2022/09/29 07:58:00;;;;;;;67.70;35.83;;;6.80;99.90;;;;;;5046285;28;20044;-40
2022/09/29 08:00:27;;;;;;;54.58;33.20;;;7.30;99.90;;;;;;5046337;28;20041;-41
2022/09/29 08:02:53;;;;;;;57.95;35.28;;;7.10;99.90;;;;;;5046571;28;20391;-42
2022/09/29 08:05:18;;;;;;;62.33;36.80;;;7.60;99.90;;;;;;5046217;28;20041;-41
2022/09/29 08:07:49;;;;;;;84.72;39.95;;;7.60;99.90;;;;;;5045921;28;20052;-41
2022/09/29 08:10:15;;;;;;;64.43;37.05;;;7.70;99.90;;;;;;5046066;28;20116;-40
2022/09/29 08:12:41;;;;;;;69.07;37.72;;;8.40;99.90;;;;;;5045618;28;20055;-40
2022/09/29 08:15:06;;;;;;;71.03;37.97;;;7.70;99.90;;;;;;5046729;28;20482;-42
2022/09/29 08:17:32;;;;;;;80.63;40.80;;;8.00;99.90;;;;;;5046744;28;20045;-42
2022/09/29 08:19:58;;;;;;;58.05;36.03;;;8.30;99.90;;;;;;5046455;28;20398;-41
2022/09/29 08:22:23;;;;;;;65.93;38.28;;;8.40;99.90;;;;;;5045962;28;20514;-41
2022/09/29 08:24:49;;;;;;;76.93;39.45;;;9.10;99.90;;;;;;5045519;28;20044;-41
2022/09/29 08:27:15;;;;;;;66.55;39.25;;;8.50;99.90;;;;;;5046169;28;20048;-42
2022/09/29 08:29:41;;;;;;;60.67;37.03;;;9.50;99.90;;;;;;5045818;28;20411;-40
2022/09/29 08:32:06;;;;;;;50.83;33.95;;;9.30;99.90;;;;;;5045442;28;20037;-41
2022/09/29 08:34:32;;;;;;;56.67;37.05;;;9.50;99.90;;;;;;5045946;28;20110;-42
2022/09/29 08:36:58;;;;;;;50.47;34.20;;;10.20;99.90;;;;;;5045633;28;20497;-41
2022/09/29 08:39:24;;;;;;;78.10;39.53;;;10.50;99.90;;;;;;5045720;28;20955;-41
2022/09/29 08:42:01;;;;;;;48.28;32.53;;;10.10;99.90;;;;;;5045334;28;20218;-41
2022/09/29 08:44:46;;;;;;;45.88;32.88;;;10.20;99.90;;;;;;5046143;28;20049;-41
2022/09/29 08:47:22;;;;;;;51.90;33.58;;;10.80;99.90;;;;;;5044391;28;20053;-41
2022/09/29 08:49:54;;;;;;;34.95;26.48;;;10.70;99.90;;;;;;5045445;28;20102;-41
2022/09/29 08:52:30;;;;;;;42.85;27.95;;;10.70;99.90;;;;;;5045608;28;20372;-41
2022/09/29 08:55:21;;;;;;;27.52;22.80;;;11.10;99.90;;;;;;5045654;28;20666;-40
2022/09/29 08:57:49;;;;;;;40.33;27.10;;;11.00;99.90;;;;;;5045872;28;20049;-41
2022/09/29 09:00:18;;;;;;;35.42;24.70;;;11.10;99.90;;;;;;5045501;28;20110;-41
2022/09/29 09:03:03;;;;;;;27.85;21.33;;;11.40;99.90;;;;;;5044720;28;20435;-41
2022/09/29 09:05:41;;;;;;;26.10;21.17;;;11.30;99.90;;;;;;5045044;28;20486;-41
2022/09/29 09:08:24;;;;;;;31.60;22.30;;;11.50;99.90;;;;;;5043500;28;20045;-40
2022/09/29 09:11:16;;;;;;;35.78;23.33;;;11.60;99.90;;;;;;5043451;28;20093;-40
2022/09/29 09:14:13;;;;;;;25.58;19.58;;;12.10;99.90;;;;;;5044047;28;20052;-42
2022/09/29 09:17:16;;;;;;;18.38;15.68;;;12.00;99.90;;;;;;5045181;28;20352;-40
2022/09/29 09:19:54;;;;;;;14.02;12.52;;;12.30;99.90;;;;;;5045199;28;20044;-40
2022/09/29 09:22:29;;;;;;;15.07;13.48;;;12.50;99.90;;;;;;5045241;28;20406;-40
2022/09/29 09:24:55;;;;;;;17.52;14.05;;;13.00;99.90;;;;;;5045090;28;20053;-40
2022/09/29 09:27:26;;;;;;;16.05;14.35;;;12.80;99.90;;;;;;5045208;28;20114;-41
2022/09/29 09:30:04;;;;;;;17.80;14.30;;;12.90;99.90;;;;;;5045087;28;20124;-42
2022/09/29 09:32:36;;;;;;;14.45;12.45;;;13.00;99.90;;;;;;5045241;28;20366;-41
2022/09/29 09:35:05;;;;;;;13.98;12.55;;;13.40;99.90;;;;;;5043839;28;20398;-41
2022/09/29 09:37:41;;;;;;;13.70;10.75;;;13.20;99.90;;;;;;5045289;28;20120;-41
2022/09/29 09:40:28;;;;;;;8.60;7.47;;;13.30;99.90;;;;;;5044887;28;20398;-41
2022/09/29 09:43:04;;;;;;;10.15;8.18;;;13.50;99.90;;;;;;5045154;28;20134;-41
2022/09/29 09:46:08;;;;;;;9.20;8.20;;;13.50;99.90;;;;;;5048999;28;20044;-42
2022/09/29 09:49:09;;;;;;;6.22;4.68;;;13.60;99.90;;;;;;5047071;28;20453;-41
2022/09/29 09:52:10;;;;;;;5.70;4.65;;;13.60;99.90;;;;;;5049332;28;20045;-42
2022/09/29 09:54:41;;;;;;;6.45;5.13;;;13.70;99.90;;;;;;5035597;28;20045;-41
2022/09/29 09:57:52;;;;;;;5.78;5.07;;;13.90;99.90;;;;;;5049419;28;20044;-41
2022/09/29 10:00:25;;;;;;;6.72;4.05;;;14.00;99.90;;;;;;5046192;28;20049;-41
2022/09/29 10:02:54;;;;;;;4.15;3.60;;;14.10;99.90;;;;;;5049150;28;20037;-41
2022/09/29 10:05:31;;;;;;;5.85;4.40;;;14.90;99.90;;;;;;5049178;28;20131;-42
2022/09/29 10:07:57;;;;;;;5.25;4.43;;;14.40;99.90;;;;;;5048796;28;20043;-41
2022/09/29 10:10:26;;;;;;;5.53;3.90;;;14.50;99.90;;;;;;5048653;28;20037;-42
2022/09/29 10:13:03;;;;;;;3.67;3.03;;;14.60;99.90;;;;;;5049017;28;20048;-41
2022/09/29 10:15:51;;;;;;;4.05;2.88;;;14.60;99.90;;;;;;5049063;28;20043;-41
2022/09/29 10:18:20;;;;;;;5.30;3.50;;;14.70;99.90;;;;;;5048977;28;20041;-41
2022/09/29 10:20:46;;;;;;;5.70;3.67;;;14.70;99.90;;;;;;5048227;28;20033;-41
2022/09/29 10:23:35;;;;;;;5.00;3.60;;;14.80;99.90;;;;;;5047953;28;20041;-42
2022/09/29 10:26:16;;;;;;;5.75;3.72;;;14.80;99.90;;;;;;5047826;28;20048;-42
2022/09/29 10:28:44;;;;;;;5.80;4.43;;;14.90;99.90;;;;;;5048167;28;20045;-40
2022/09/29 10:31:20;;;;;;;3.80;3.40;;;14.90;99.90;;;;;;5048495;28;20045;-41
2022/09/29 10:33:50;;;;;;;5.65;4.05;;;14.80;99.90;;;;;;5048008;28;20453;-44
2022/09/29 10:36:19;;;;;;;4.20;2.90;;;14.80;99.90;;;;;;5048673;28;20044;-41
2022/09/29 10:38:47;;;;;;;3.10;2.00;;;14.80;99.90;;;;;;5047921;28;20593;-41
2022/09/29 10:41:13;;;;;;;3.58;2.13;;;14.90;99.90;;;;;;5047883;28;20055;-42
2022/09/29 10:43:41;;;;;;;2.72;2.05;;;14.90;99.90;;;;;;5048005;28;20040;-41
2022/09/29 10:46:33;;;;;;;2.20;1.30;;;15.00;99.90;;;;;;5047880;28;20573;-42
2022/09/29 10:49:18;;;;;;;2.00;1.20;;;15.00;99.90;;;;;;5023821;28;20464;-41
2022/09/29 10:52:01;;;;;;;4.05;2.28;;;14.90;99.90;;;;;;5047971;28;20044;-41
2022/09/29 10:54:32;;;;;;;4.63;2.28;;;14.90;99.90;;;;;;5048018;28;20560;-42
2022/09/29 10:56:59;;;;;;;2.08;1.73;;;14.90;99.90;;;;;;5047116;28;20041;-40
2022/09/29 10:59:25;;;;;;;3.72;2.00;;;14.90;99.90;;;;;;5047980;28;20545;-41
2022/09/29 11:01:58;;;;;;;2.20;1.50;;;15.00;99.90;;;;;;5047863;28;20067;-41
2022/09/29 11:04:33;;;;;;;4.00;2.58;;;15.00;99.90;;;;;;5048272;28;20053;-41
2022/09/29 11:07:09;;;;;;;3.08;2.28;;;15.10;99.90;;;;;;5048335;28;20041;-41
2022/09/29 11:09:39;;;;;;;2.20;1.13;;;15.20;99.90;;;;;;5048171;28;20099;-41
2022/09/29 11:12:21;;;;;;;2.88;0.98;;;15.30;99.90;;;;;;5047306;28;20583;-41
2022/09/29 11:14:47;;;;;;;2.50;1.52;;;15.30;99.90;;;;;;5047551;28;20554;-41
2022/09/29 11:17:26;;;;;;;1.70;0.85;;;15.50;99.90;;;;;;5048034;28;20105;-41
2022/09/29 11:19:55;;;;;;;2.22;1.60;;;15.20;99.90;;;;;;5048300;28;20045;-41
2022/09/29 11:22:42;;;;;;;2.25;1.20;;;15.40;99.90;;;;;;5047848;28;20037;-42
2022/09/29 11:25:31;;;;;;;2.78;0.90;;;15.30;99.90;;;;;;5047013;28;20041;-42
2022/09/29 11:28:24;;;;;;;1.77;0.95;;;15.50;99.90;;;;;;5047312;28;20102;-40
2022/09/29 11:31:19;;;;;;;2.45;1.20;;;15.70;99.90;;;;;;5047249;28;20069;-41
2022/09/29 11:34:22;;;;;;;2.17;1.00;;;15.90;99.90;;;;;;5038536;28;20057;-41
2022/09/29 11:37:26;;;;;;;1.70;0.90;;;15.80;99.90;;;;;;5047573;28;20052;-40
2022/09/29 11:40:10;;;;;;;1.38;0.60;;;15.70;99.90;;;;;;5033343;28;20458;-40
2022/09/29 11:43:13;;;;;;;1.30;0.60;;;15.70;99.90;;;;;;5047157;28;20044;-41
2022/09/29 11:45:55;;;;;;;1.80;0.40;;;15.40;99.90;;;;;;5047193;28;20103;-42
2022/09/29 11:48:54;;;;;;;1.63;0.68;;;15.10;99.90;;;;;;5046905;28;20490;-43
2022/09/29 11:51:29;;;;;;;1.50;0.60;;;15.10;99.90;;;;;;5047208;28;20045;-41
2022/09/29 11:54:06;;;;;;;2.25;1.15;;;14.80;99.90;;;;;;5047055;28;20140;-42
2022/09/29 11:56:45;;;;;;;7.05;1.40;;;14.70;99.90;;;;;;5047014;28;20394;-41
2022/09/29 11:59:59;;;;;;;0.57;0.22;;;14.40;99.90;;;;;;5047263;28;20167;-42
2022/09/29 12:02:52;;;;;;;1.23;0.20;;;14.50;99.90;;;;;;5047348;28;20052;-41
2022/09/29 12:05:23;;;;;;;1.38;0.38;;;14.50;99.90;;;;;;5046776;28;20395;-41
2022/09/29 12:08:28;;;;;;;1.00;0.50;;;14.60;99.90;;;;;;5046692;28;20037;-41
2022/09/29 12:11:13;;;;;;;1.50;0.82;;;14.80;99.90;;;;;;5046442;28;20391;-40
2022/09/29 12:13:56;;;;;;;1.58;0.70;;;15.00;99.90;;;;;;5046255;28;20390;-42
2022/09/29 12:16:31;;;;;;;1.15;0.40;;;15.10;99.90;;;;;;5046390;28;20041;-41
2022/09/29 12:19:09;;;;;;;2.50;0.90;;;15.30;99.90;;;;;;5046118;28;20116;-40
2022/09/29 12:21:45;;;;;;;3.88;0.57;;;15.30;99.90;;;;;;5046290;28;20124;-41
2022/09/29 12:24:19;;;;;;;1.10;0.50;;;15.80;99.90;;;;;;5045985;28;20053;-41
2022/09/29 12:26:48;;;;;;;0.70;0.20;;;15.30;99.90;;;;;;5046247;28;20045;-41
2022/09/29 12:29:35;;;;;;;0.82;0.13;;;15.30;99.90;;;;;;5045815;28;20490;-40
2022/09/29 12:32:09;;;;;;;2.38;0.30;;;15.40;99.90;;;;;;5046158;28;20045;-40
2022/09/29 12:34:45;;;;;;;0.85;0.30;;;15.30;99.90;;;;;;5046180;28;20036;-41
2022/09/29 12:37:35;;;;;;;1.15;0.20;;;15.40;99.90;;;;;;5046075;28;20487;-40
2022/09/29 12:40:23;;;;;;;0.82;0.20;;;15.40;99.90;;;;;;5046206;28;20098;-41
2022/09/29 12:43:11;;;;;;;2.03;0.30;;;15.30;99.90;;;;;;5046133;28;20056;-41
2022/09/29 12:46:01;;;;;;;1.95;0.30;;;15.20;99.90;;;;;;5046289;28;20059;-41
2022/09/29 12:48:55;;;;;;;1.30;0.40;;;15.10;99.90;;;;;;5046717;28;20053;-41
2022/09/29 12:51:32;;;;;;;0.43;0.20;;;14.80;99.90;;;;;;5046477;28;20045;-41
2022/09/29 12:54:21;;;;;;;0.55;0.25;;;14.70;99.90;;;;;;5046300;28;20045;-41
2022/09/29 12:56:58;;;;;;;0.75;0.10;;;14.50;99.90;;;;;;5045764;28;20097;-41
2022/09/29 12:59:37;;;;;;;0.95;0.20;;;14.40;99.90;;;;;;5045334;28;20036;-41
2022/09/29 13:02:26;;;;;;;2.25;0.30;;;14.40;99.90;;;;;;5045161;28;20041;-41
2022/09/29 13:05:32;;;;;;;2.33;0.30;;;14.40;99.90;;;;;;5045355;28;20127;-40
2022/09/29 13:08:33;;;;;;;0.68;0.20;;;14.20;99.90;;;;;;5045234;28;20072;-40